createdAt,value
2022-12-17T00:04:43.213Z,71.24
2022-12-17T00:09:48.591Z,71.21
2022-12-17T00:14:44.088Z,71.27
2022-12-17T00:20:09.023Z,70.94
2022-12-17T00:25:12.092Z,70.73
2022-12-17T00:30:04.493Z,71.31
2022-12-17T00:35:04.472Z,71.62
2022-12-17T00:40:05.171Z,71.66
2022-12-17T00:45:04.319Z,71.62
2022-12-17T00:50:04.258Z,71.59
2022-12-17T00:55:04.219Z,71.61
2022-12-17T01:00:04.095Z,71.59
2022-12-17T01:10:39.624Z,71.67
2022-12-17T01:15:39.564Z,71.70
2022-12-17T01:20:39.517Z,71.69
2022-12-17T01:25:39.452Z,71.69
2022-12-17T01:30:39.388Z,71.66
2022-12-17T01:35:39.324Z,71.63
2022-12-17T01:40:39.275Z,71.66
2022-12-17T01:45:39.228Z,71.74
2022-12-17T01:50:39.124Z,71.78
2022-12-17T01:55:39.073Z,71.81
2022-12-17T02:00:38.991Z,71.81
2022-12-17T02:05:38.939Z,71.85
2022-12-17T02:10:38.864Z,71.87
2022-12-17T02:15:38.806Z,71.87
2022-12-17T02:20:38.719Z,71.88
2022-12-17T02:25:38.690Z,71.91
2022-12-17T02:30:38.583Z,71.99
2022-12-17T02:35:38.551Z,72.02
2022-12-17T02:40:38.490Z,71.99
2022-12-17T02:45:38.494Z,72.01
2022-12-17T02:50:38.380Z,72.02
2022-12-17T02:55:38.339Z,71.99
2022-12-17T03:00:38.212Z,72.06
2022-12-17T03:05:45.961Z,72.06
2022-12-17T03:10:39.106Z,72.02
2022-12-17T03:15:38.027Z,72.05
2022-12-17T03:20:37.956Z,72.08
2022-12-17T03:25:37.915Z,72.07
2022-12-17T03:30:39.059Z,72.07
2022-12-17T03:35:37.786Z,72.06
2022-12-17T03:40:37.694Z,72.08
2022-12-17T03:45:38.684Z,72.09
2022-12-17T03:50:37.580Z,72.13
2022-12-17T03:55:37.519Z,72.16
2022-12-17T04:00:37.464Z,72.16
2022-12-17T04:05:37.376Z,72.17
2022-12-17T04:10:37.327Z,72.18
2022-12-17T04:15:37.329Z,72.22
2022-12-17T04:20:37.189Z,72.31
2022-12-17T04:25:37.171Z,72.35
2022-12-17T04:30:37.146Z,72.39
2022-12-17T04:35:37.005Z,72.44
2022-12-17T04:40:36.928Z,72.50
2022-12-17T04:45:36.876Z,72.55
2022-12-17T04:50:36.804Z,72.54
2022-12-17T04:55:36.763Z,72.58
2022-12-17T05:00:36.643Z,72.55
2022-12-17T05:05:36.634Z,72.56
2022-12-17T05:10:36.544Z,72.55
2022-12-17T05:15:53.043Z,72.54
2022-12-17T05:20:42.160Z,72.52
2022-12-17T05:25:42.082Z,72.53
2022-12-17T05:30:42.030Z,72.52
2022-12-17T05:35:41.938Z,72.55
2022-12-17T05:40:41.892Z,72.57
2022-12-17T05:45:41.837Z,72.66
2022-12-17T05:50:43.490Z,72.70
2022-12-17T05:55:41.706Z,72.65
2022-12-17T06:00:41.640Z,72.68
2022-12-17T06:05:41.566Z,72.66
2022-12-17T06:10:41.501Z,72.72
2022-12-17T06:15:41.501Z,72.71
2022-12-17T06:20:41.375Z,72.74
2022-12-17T06:25:41.320Z,72.79
2022-12-17T06:30:41.236Z,72.81
2022-12-17T06:35:41.182Z,72.85
2022-12-17T06:40:41.105Z,72.83
2022-12-17T06:45:41.058Z,72.89
2022-12-17T06:50:40.986Z,73.00
2022-12-17T06:55:40.928Z,73.02
2022-12-17T07:00:40.924Z,73.08
2022-12-17T07:05:40.838Z,73.07
2022-12-17T07:10:40.723Z,73.06
2022-12-17T07:15:40.684Z,73.02
2022-12-17T07:20:40.615Z,73.00
2022-12-17T07:25:45.669Z,72.99
2022-12-17T07:30:41.483Z,72.98
2022-12-17T07:35:40.420Z,72.98
2022-12-17T07:40:40.336Z,72.98
2022-12-17T07:45:40.328Z,72.97
2022-12-17T07:50:40.208Z,72.91
2022-12-17T07:55:40.166Z,72.89
2022-12-17T08:00:43.466Z,72.87
2022-12-17T08:05:41.043Z,72.80
2022-12-17T08:10:39.952Z,72.74
2022-12-17T08:15:39.880Z,72.70
2022-12-17T08:20:39.817Z,72.75
2022-12-17T08:25:39.772Z,72.73
2022-12-17T08:30:39.754Z,72.66
2022-12-17T08:35:39.674Z,72.56
2022-12-17T08:40:39.561Z,72.45
2022-12-17T08:45:39.541Z,72.39
2022-12-17T08:50:39.444Z,72.37
2022-12-17T08:55:39.723Z,72.32
2022-12-17T09:00:39.328Z,72.23
2022-12-17T09:05:39.281Z,72.11
2022-12-17T09:10:39.164Z,72.05
2022-12-17T09:15:39.139Z,72.01
2022-12-17T09:20:39.051Z,71.99
2022-12-17T09:25:39.003Z,71.86
2022-12-17T09:30:39.001Z,71.70
2022-12-17T09:35:38.873Z,71.56
2022-12-17T09:40:38.793Z,71.44
2022-12-17T09:45:38.788Z,71.31
2022-12-17T09:50:38.664Z,71.24
2022-12-17T09:55:38.615Z,71.06
2022-12-17T10:00:38.565Z,71.00
2022-12-17T10:05:38.504Z,70.73
2022-12-17T10:10:38.406Z,70.55
2022-12-17T10:15:39.125Z,70.49
2022-12-17T10:20:38.281Z,70.20
2022-12-17T10:25:38.221Z,69.78
2022-12-17T10:30:38.245Z,69.62
2022-12-17T10:35:38.103Z,69.41
2022-12-17T10:40:38.033Z,69.44
2022-12-17T10:45:37.975Z,69.50
2022-12-17T10:50:37.920Z,69.51
2022-12-17T10:55:37.854Z,69.55
2022-12-17T11:00:37.777Z,69.36
2022-12-17T11:05:38.513Z,69.21
2022-12-17T11:10:37.637Z,69.31
2022-12-17T11:15:37.695Z,69.35
2022-12-17T11:20:37.525Z,69.19
2022-12-17T11:25:37.466Z,68.78
2022-12-17T11:30:37.394Z,69.05
2022-12-17T11:35:37.345Z,69.17
2022-12-17T11:40:37.302Z,69.14
2022-12-17T11:45:37.231Z,69.01
2022-12-17T11:50:37.151Z,68.75
2022-12-17T11:55:37.168Z,68.92
2022-12-17T12:00:36.982Z,68.91
2022-12-17T12:05:36.966Z,68.77
2022-12-17T12:10:36.890Z,68.92
2022-12-17T12:15:36.825Z,68.78
2022-12-17T12:20:36.755Z,68.63
2022-12-17T12:25:36.714Z,68.29
2022-12-17T12:30:36.602Z,68.02
2022-12-17T12:35:36.570Z,67.96
2022-12-17T12:40:36.493Z,67.75
2022-12-17T12:45:36.482Z,67.21
2022-12-17T12:50:36.359Z,66.31
2022-12-17T12:55:36.318Z,65.67
2022-12-17T13:00:36.242Z,65.18
2022-12-17T13:05:36.202Z,65.07
2022-12-17T13:10:36.120Z,64.76
2022-12-17T13:15:36.080Z,65.27
2022-12-17T13:20:35.994Z,65.91
2022-12-17T13:25:35.919Z,66.63
2022-12-17T13:30:35.857Z,66.79
2022-12-17T13:35:35.914Z,66.68
2022-12-17T13:40:35.742Z,66.93
2022-12-17T13:45:35.758Z,67.50
2022-12-17T13:50:36.673Z,67.73
2022-12-17T13:55:35.561Z,67.78
2022-12-17T14:00:35.450Z,68.23
2022-12-17T14:05:35.418Z,68.48
2022-12-17T14:10:35.340Z,68.60
2022-12-17T14:15:35.331Z,68.88
2022-12-17T14:20:35.238Z,69.09
2022-12-17T14:25:35.174Z,69.19
2022-12-17T14:30:35.098Z,69.34
2022-12-17T14:35:35.070Z,69.49
2022-12-17T14:40:35.815Z,69.66
2022-12-17T14:45:34.965Z,69.81
2022-12-17T14:50:34.855Z,69.99
2022-12-17T14:55:34.825Z,70.14
2022-12-17T15:00:34.707Z,70.29
2022-12-17T15:05:34.648Z,70.42
2022-12-17T15:10:34.584Z,70.56
2022-12-17T15:15:34.492Z,70.68
2022-12-17T15:20:34.458Z,70.80
2022-12-17T15:25:37.623Z,70.87
2022-12-17T15:30:35.391Z,70.96
2022-12-17T15:35:34.247Z,71.05
2022-12-17T15:40:34.180Z,71.16
2022-12-17T15:45:34.150Z,71.21
2022-12-17T15:50:34.089Z,71.26
2022-12-17T15:55:34.010Z,71.27
2022-12-17T16:00:33.911Z,71.29
2022-12-17T16:05:33.879Z,71.35
2022-12-17T16:10:33.826Z,71.44
2022-12-17T16:15:33.836Z,71.52
2022-12-17T16:20:33.702Z,71.51
2022-12-17T16:25:33.640Z,71.50
2022-12-17T16:30:33.551Z,71.50
2022-12-17T16:35:33.520Z,71.53
2022-12-17T16:40:33.421Z,71.57
2022-12-17T16:45:33.366Z,71.55
2022-12-17T16:50:33.315Z,71.53
2022-12-17T16:55:33.282Z,71.51
2022-12-17T17:00:33.205Z,71.56
2022-12-17T17:05:33.180Z,71.56
2022-12-17T17:10:33.062Z,71.55
2022-12-17T17:15:33.054Z,71.56
2022-12-17T17:20:32.953Z,71.57
2022-12-17T17:25:50.594Z,71.61
2022-12-17T17:30:33.823Z,71.62
2022-12-17T17:35:32.744Z,71.60
2022-12-17T17:40:32.701Z,71.62
2022-12-17T17:45:32.637Z,71.66
2022-12-17T17:50:32.548Z,71.64
2022-12-17T17:55:32.523Z,71.66
2022-12-17T18:00:32.469Z,71.69
2022-12-17T18:05:35.798Z,71.70
2022-12-17T18:10:33.341Z,71.69
2022-12-17T18:15:32.287Z,71.71
2022-12-17T18:20:32.199Z,71.75
2022-12-17T18:25:37.301Z,71.82
2022-12-17T18:30:33.085Z,71.81
2022-12-17T18:35:32.115Z,71.79
2022-12-17T18:40:33.576Z,71.75
2022-12-17T18:45:31.907Z,71.72
2022-12-17T18:50:31.843Z,71.78
2022-12-17T18:55:31.784Z,71.81
2022-12-17T19:00:31.861Z,71.84
2022-12-17T19:05:31.700Z,71.89
2022-12-17T19:10:31.593Z,71.90
2022-12-17T19:15:31.533Z,71.87
2022-12-17T19:20:31.477Z,71.82
2022-12-17T19:25:31.433Z,71.81
2022-12-17T19:30:31.352Z,71.81
2022-12-17T19:35:31.312Z,71.85
2022-12-17T19:40:31.257Z,71.84
2022-12-17T19:45:31.215Z,71.85
2022-12-17T19:50:31.117Z,71.85
2022-12-17T19:55:31.051Z,71.82
2022-12-17T20:00:31.034Z,71.86
2022-12-17T20:05:30.938Z,71.87
2022-12-17T20:10:30.877Z,71.89
2022-12-17T20:15:30.839Z,71.90
2022-12-17T20:20:31.590Z,71.88
2022-12-17T20:25:30.725Z,71.88
2022-12-17T20:30:30.648Z,71.92
2022-12-17T20:35:30.580Z,71.89
2022-12-17T20:40:30.482Z,71.89
2022-12-17T20:45:30.500Z,71.88
2022-12-17T20:50:30.401Z,71.85
2022-12-17T20:55:31.372Z,71.83
2022-12-17T21:00:30.247Z,71.83
2022-12-17T21:05:30.205Z,71.86
2022-12-17T21:10:30.158Z,71.83
2022-12-17T21:15:30.080Z,71.87
2022-12-17T21:20:30.022Z,71.90
2022-12-17T21:25:29.968Z,71.92
2022-12-17T21:30:29.931Z,71.91
2022-12-17T21:35:29.857Z,71.91
2022-12-17T21:40:29.784Z,71.89
2022-12-17T21:45:29.736Z,71.85
2022-12-17T21:50:29.656Z,71.77
2022-12-17T21:55:29.605Z,71.76
2022-12-17T22:00:29.539Z,71.84
2022-12-17T22:05:29.495Z,71.88
2022-12-17T22:10:40.561Z,71.87
2022-12-17T22:15:34.991Z,71.85
2022-12-17T22:20:30.278Z,71.86
2022-12-17T22:25:29.249Z,71.89
2022-12-17T22:30:29.159Z,71.90
2022-12-17T22:38:27.026Z,71.90
2022-12-17T22:44:30.506Z,71.85
2022-12-17T22:45:29.968Z,71.87
2022-12-17T22:50:32.213Z,71.87
2022-12-17T22:55:29.913Z,71.91
2022-12-17T23:00:28.800Z,71.93
2022-12-17T23:05:28.749Z,71.92
2022-12-17T23:10:28.656Z,71.88
2022-12-17T23:15:28.721Z,71.86
2022-12-17T23:20:28.576Z,71.88
2022-12-17T23:25:28.535Z,71.89
2022-12-17T23:30:28.426Z,71.91
2022-12-17T23:35:28.382Z,71.87
2022-12-17T23:40:28.321Z,71.85
2022-12-17T23:45:28.243Z,71.80
2022-12-17T23:50:28.214Z,71.79
2022-12-17T23:55:28.166Z,71.79
